Weather at Ischia Casamicciola Terme Heliport

Public forecast

Using degrees Celsius for public forecast. Weather courtesy of forecast.io.

Closest aviation weather report (METAR) to Ischia Casamicciola Terme Heliport

Closest report is Naples International Airport, 19.6 nm (36.3 km) ENE.

2024/07/14 17:20 (retrieved 20 minutes ago)

LIRN 141720Z 20004KT 170V290 CAVOK 31/19 Q1012 NOSIG

Closest aviation forecast (TAF) to Ischia Casamicciola Terme Heliport

Closest forecast is Naples International Airport, 19.6 nm (36.3 km) ENE.

2024/07/14 12:21 (retrieved 5 hours ago)

TAF LIRN 141100Z 1412/1512 25010KT CAVOK BECMG 1415/1417 VRB04KT BECMG 1510/1512 25010KT